sensor_id;sensor_type;location;lat;lon;timestamp;P1;durP1;ratioP1;P2;durP2;ratioP2
44985;SDS011;30721;49.380;7.736;2023-09-08T00:01:51;5.32;;;4.82;;
44985;SDS011;30721;49.380;7.736;2023-09-08T00:04:17;5.22;;;4.72;;
44985;SDS011;30721;49.380;7.736;2023-09-08T00:06:44;5.50;;;4.97;;
44985;SDS011;30721;49.380;7.736;2023-09-08T00:09:11;5.38;;;4.88;;
44985;SDS011;30721;49.380;7.736;2023-09-08T00:11:36;5.28;;;4.78;;
44985;SDS011;30721;49.380;7.736;2023-09-08T00:14:01;5.55;;;5.00;;
44985;SDS011;30721;49.380;7.736;2023-09-08T00:16:28;5.38;;;4.75;;
44985;SDS011;30721;49.380;7.736;2023-09-08T00:18:54;5.50;;;5.00;;
44985;SDS011;30721;49.380;7.736;2023-09-08T00:21:20;5.50;;;5.00;;
44985;SDS011;30721;49.380;7.736;2023-09-08T00:23:45;4.95;;;4.45;;
44985;SDS011;30721;49.380;7.736;2023-09-08T00:26:11;4.90;;;4.43;;
44985;SDS011;30721;49.380;7.736;2023-09-08T00:28:36;5.35;;;4.85;;
44985;SDS011;30721;49.380;7.736;2023-09-08T00:31:01;5.55;;;4.78;;
44985;SDS011;30721;49.380;7.736;2023-09-08T00:33:27;7.32;;;4.60;;
44985;SDS011;30721;49.380;7.736;2023-09-08T00:35:52;5.28;;;4.78;;
44985;SDS011;30721;49.380;7.736;2023-09-08T00:38:18;5.20;;;4.70;;
44985;SDS011;30721;49.380;7.736;2023-09-08T00:40:44;4.82;;;4.32;;
44985;SDS011;30721;49.380;7.736;2023-09-08T00:43:09;6.75;;;4.97;;
44985;SDS011;30721;49.380;7.736;2023-09-08T00:45:36;5.65;;;5.15;;
44985;SDS011;30721;49.380;7.736;2023-09-08T00:48:04;5.70;;;5.20;;
44985;SDS011;30721;49.380;7.736;2023-09-08T00:50:30;6.20;;;5.60;;
44985;SDS011;30721;49.380;7.736;2023-09-08T00:52:55;5.28;;;4.82;;
44985;SDS011;30721;49.380;7.736;2023-09-08T00:57:56;5.72;;;4.93;;
44985;SDS011;30721;49.380;7.736;2023-09-08T01:02:59;5.35;;;4.85;;
44985;SDS011;30721;49.380;7.736;2023-09-08T01:05:25;5.47;;;4.90;;
44985;SDS011;30721;49.380;7.736;2023-09-08T01:23:21;5.28;;;4.78;;
44985;SDS011;30721;49.380;7.736;2023-09-08T01:25:52;5.53;;;5.03;;
44985;SDS011;30721;49.380;7.736;2023-09-08T01:28:21;5.60;;;5.10;;
44985;SDS011;30721;49.380;7.736;2023-09-08T01:30:48;5.05;;;4.65;;
44985;SDS011;30721;49.380;7.736;2023-09-08T01:33:14;6.20;;;5.07;;
44985;SDS011;30721;49.380;7.736;2023-09-08T01:35:40;5.55;;;5.00;;
44985;SDS011;30721;49.380;7.736;2023-09-08T02:17:32;5.97;;;5.00;;
44985;SDS011;30721;49.380;7.736;2023-09-08T02:19:58;5.90;;;5.30;;
44985;SDS011;30721;49.380;7.736;2023-09-08T02:24:58;5.78;;;5.13;;
44985;SDS011;30721;49.380;7.736;2023-09-08T02:37:44;5.97;;;5.28;;
44985;SDS011;30721;49.380;7.736;2023-09-08T02:40:10;5.97;;;5.38;;
44985;SDS011;30721;49.380;7.736;2023-09-08T02:42:35;7.18;;;5.75;;
44985;SDS011;30721;49.380;7.736;2023-09-08T02:45:01;5.72;;;5.18;;
44985;SDS011;30721;49.380;7.736;2023-09-08T03:16:03;6.10;;;5.50;;
44985;SDS011;30721;49.380;7.736;2023-09-08T03:18:32;6.40;;;5.75;;
44985;SDS011;30721;49.380;7.736;2023-09-08T03:20:59;6.82;;;6.13;;
44985;SDS011;30721;49.380;7.736;2023-09-08T03:23:25;6.95;;;5.93;;
44985;SDS011;30721;49.380;7.736;2023-09-08T03:25:51;5.75;;;5.22;;
44985;SDS011;30721;49.380;7.736;2023-09-08T03:30:51;5.85;;;5.35;;
44985;SDS011;30721;49.380;7.736;2023-09-08T03:36:02;6.20;;;5.60;;
44985;SDS011;30721;49.380;7.736;2023-09-08T03:43:38;7.45;;;6.40;;
44985;SDS011;30721;49.380;7.736;2023-09-08T03:46:03;6.10;;;5.50;;
44985;SDS011;30721;49.380;7.736;2023-09-08T03:48:37;6.27;;;5.67;;
44985;SDS011;30721;49.380;7.736;2023-09-08T03:51:02;6.25;;;5.65;;
44985;SDS011;30721;49.380;7.736;2023-09-08T03:53:28;6.60;;;6.00;;
44985;SDS011;30721;49.380;7.736;2023-09-08T04:57:10;6.38;;;5.78;;
44985;SDS011;30721;49.380;7.736;2023-09-08T04:59:36;7.20;;;5.65;;
44985;SDS011;30721;49.380;7.736;2023-09-08T05:02:04;6.53;;;5.63;;
44985;SDS011;30721;49.380;7.736;2023-09-08T05:04:29;6.45;;;5.50;;
44985;SDS011;30721;49.380;7.736;2023-09-08T05:06:55;6.97;;;5.85;;
44985;SDS011;30721;49.380;7.736;2023-09-08T05:09:20;6.38;;;5.20;;
44985;SDS011;30721;49.380;7.736;2023-09-08T05:11:46;7.10;;;5.55;;
44985;SDS011;30721;49.380;7.736;2023-09-08T05:14:11;6.05;;;5.45;;
44985;SDS011;30721;49.380;7.736;2023-09-08T05:16:37;6.85;;;5.88;;
44985;SDS011;30721;49.380;7.736;2023-09-08T05:19:10;6.35;;;5.68;;
44985;SDS011;30721;49.380;7.736;2023-09-08T05:21:36;7.13;;;6.32;;
44985;SDS011;30721;49.380;7.736;2023-09-08T05:24:02;7.18;;;5.57;;
44985;SDS011;30721;49.380;7.736;2023-09-08T05:26:28;6.35;;;5.75;;
44985;SDS011;30721;49.380;7.736;2023-09-08T05:28:53;7.28;;;6.07;;
44985;SDS011;30721;49.380;7.736;2023-09-08T05:31:19;6.35;;;5.75;;
44985;SDS011;30721;49.380;7.736;2023-09-08T05:33:45;6.03;;;5.40;;
44985;SDS011;30721;49.380;7.736;2023-09-08T05:36:11;6.70;;;6.03;;
44985;SDS011;30721;49.380;7.736;2023-09-08T05:38:37;6.65;;;5.65;;
44985;SDS011;30721;49.380;7.736;2023-09-08T05:41:02;6.53;;;5.88;;
44985;SDS011;30721;49.380;7.736;2023-09-08T05:43:28;5.88;;;5.28;;
44985;SDS011;30721;49.380;7.736;2023-09-08T05:45:53;6.93;;;5.80;;
44985;SDS011;30721;49.380;7.736;2023-09-08T05:48:18;7.00;;;6.13;;
44985;SDS011;30721;49.380;7.736;2023-09-08T05:50:44;6.07;;;5.47;;
44985;SDS011;30721;49.380;7.736;2023-09-08T05:53:09;6.32;;;5.30;;
44985;SDS011;30721;49.380;7.736;2023-09-08T05:55:35;6.60;;;6.00;;
44985;SDS011;30721;49.380;7.736;2023-09-08T05:58:00;6.53;;;5.90;;
44985;SDS011;30721;49.380;7.736;2023-09-08T06:00:26;6.13;;;5.57;;
44985;SDS011;30721;49.380;7.736;2023-09-08T06:02:51;6.28;;;5.68;;
44985;SDS011;30721;49.380;7.736;2023-09-08T06:05:17;6.35;;;5.75;;
44985;SDS011;30721;49.380;7.736;2023-09-08T06:07:42;8.27;;;6.57;;
44985;SDS011;30721;49.380;7.736;2023-09-08T06:10:08;6.72;;;6.13;;
44985;SDS011;30721;49.380;7.736;2023-09-08T06:12:33;6.85;;;5.55;;
44985;SDS011;30721;49.380;7.736;2023-09-08T06:14:59;5.95;;;5.35;;
44985;SDS011;30721;49.380;7.736;2023-09-08T06:17:25;5.80;;;5.20;;
44985;SDS011;30721;49.380;7.736;2023-09-08T06:19:52;5.88;;;5.28;;
44985;SDS011;30721;49.380;7.736;2023-09-08T06:22:18;5.82;;;5.22;;
44985;SDS011;30721;49.380;7.736;2023-09-08T06:24:43;5.22;;;4.72;;
44985;SDS011;30721;49.380;7.736;2023-09-08T06:27:08;5.95;;;5.45;;
44985;SDS011;30721;49.380;7.736;2023-09-08T06:29:34;6.03;;;5.43;;
44985;SDS011;30721;49.380;7.736;2023-09-08T06:31:59;6.15;;;5.55;;
44985;SDS011;30721;49.380;7.736;2023-09-08T06:34:25;6.82;;;5.90;;
44985;SDS011;30721;49.380;7.736;2023-09-08T06:36:50;5.50;;;5.00;;
44985;SDS011;30721;49.380;7.736;2023-09-08T06:39:15;6.38;;;5.78;;
44985;SDS011;30721;49.380;7.736;2023-09-08T06:41:41;6.40;;;5.75;;
44985;SDS011;30721;49.380;7.736;2023-09-08T06:44:06;6.75;;;6.18;;
44985;SDS011;30721;49.380;7.736;2023-09-08T06:46:31;6.47;;;5.88;;
44985;SDS011;30721;49.380;7.736;2023-09-08T07:10:19;6.50;;;5.90;;
44985;SDS011;30721;49.380;7.736;2023-09-08T07:25:37;6.43;;;5.80;;
44985;SDS011;30721;49.380;7.736;2023-09-08T07:28:03;5.80;;;5.30;;
44985;SDS011;30721;49.380;7.736;2023-09-08T07:30:28;5.95;;;4.88;;
44985;SDS011;30721;49.380;7.736;2023-09-08T07:32:56;6.65;;;6.15;;
44985;SDS011;30721;49.380;7.736;2023-09-08T07:35:23;5.75;;;5.25;;
44985;SDS011;30721;49.380;7.736;2023-09-08T07:37:49;5.82;;;5.32;;
44985;SDS011;30721;49.380;7.736;2023-09-08T07:40:16;6.03;;;5.45;;
44985;SDS011;30721;49.380;7.736;2023-09-08T07:42:42;5.75;;;5.15;;
44985;SDS011;30721;49.380;7.736;2023-09-08T07:45:08;5.70;;;5.20;;
44985;SDS011;30721;49.380;7.736;2023-09-08T07:47:35;5.22;;;4.72;;
44985;SDS011;30721;49.380;7.736;2023-09-08T07:52:47;5.88;;;5.38;;
44985;SDS011;30721;49.380;7.736;2023-09-08T07:55:14;5.25;;;4.85;;
44985;SDS011;30721;49.380;7.736;2023-09-08T07:57:41;5.68;;;5.22;;
44985;SDS011;30721;49.380;7.736;2023-09-08T08:00:07;5.75;;;5.25;;
44985;SDS011;30721;49.380;7.736;2023-09-08T08:02:36;5.15;;;4.75;;
44985;SDS011;30721;49.380;7.736;2023-09-08T08:05:02;5.78;;;5.22;;
44985;SDS011;30721;49.380;7.736;2023-09-08T08:07:27;5.63;;;5.13;;
44985;SDS011;30721;49.380;7.736;2023-09-08T08:09:52;5.60;;;5.10;;
44985;SDS011;30721;49.380;7.736;2023-09-08T08:12:19;5.88;;;5.38;;
44985;SDS011;30721;49.380;7.736;2023-09-08T08:14:44;5.70;;;5.20;;
44985;SDS011;30721;49.380;7.736;2023-09-08T08:17:10;5.68;;;5.20;;
44985;SDS011;30721;49.380;7.736;2023-09-08T08:19:36;5.28;;;4.88;;
44985;SDS011;30721;49.380;7.736;2023-09-08T08:22:01;5.97;;;5.53;;
44985;SDS011;30721;49.380;7.736;2023-09-08T08:24:27;5.97;;;5.40;;
44985;SDS011;30721;49.380;7.736;2023-09-08T08:26:52;5.60;;;5.20;;
44985;SDS011;30721;49.380;7.736;2023-09-08T08:29:18;5.65;;;5.15;;
44985;SDS011;30721;49.380;7.736;2023-09-08T08:31:44;5.38;;;4.95;;
44985;SDS011;30721;49.380;7.736;2023-09-08T08:34:09;6.07;;;5.68;;
44985;SDS011;30721;49.380;7.736;2023-09-08T08:36:34;6.45;;;5.95;;
44985;SDS011;30721;49.380;7.736;2023-09-08T08:39:00;6.00;;;5.50;;
44985;SDS011;30721;49.380;7.736;2023-09-08T08:41:25;6.10;;;5.60;;
44985;SDS011;30721;49.380;7.736;2023-09-08T08:43:51;5.93;;;5.43;;
44985;SDS011;30721;49.380;7.736;2023-09-08T08:46:17;5.88;;;5.38;;
44985;SDS011;30721;49.380;7.736;2023-09-08T08:48:43;6.03;;;5.53;;
44985;SDS011;30721;49.380;7.736;2023-09-08T08:51:10;5.53;;;5.13;;
44985;SDS011;30721;49.380;7.736;2023-09-08T08:53:35;5.72;;;5.22;;
44985;SDS011;30721;49.380;7.736;2023-09-08T08:56:03;6.03;;;5.53;;
44985;SDS011;30721;49.380;7.736;2023-09-08T08:58:28;6.18;;;5.68;;
44985;SDS011;30721;49.380;7.736;2023-09-08T09:00:54;5.78;;;5.13;;
44985;SDS011;30721;49.380;7.736;2023-09-08T09:03:22;6.30;;;5.80;;
44985;SDS011;30721;49.380;7.736;2023-09-08T09:08:24;5.82;;;5.32;;
44985;SDS011;30721;49.380;7.736;2023-09-08T09:13:25;5.50;;;5.10;;
44985;SDS011;30721;49.380;7.736;2023-09-08T09:15:50;6.07;;;5.57;;
44985;SDS011;30721;49.380;7.736;2023-09-08T09:20:54;5.50;;;5.10;;
44985;SDS011;30721;49.380;7.736;2023-09-08T09:28:33;5.85;;;5.35;;
44985;SDS011;30721;49.380;7.736;2023-09-08T09:30:58;6.63;;;6.05;;
44985;SDS011;30721;49.380;7.736;2023-09-08T09:35:59;6.43;;;5.82;;
44985;SDS011;30721;49.380;7.736;2023-09-08T09:38:26;6.55;;;6.00;;
44985;SDS011;30721;49.380;7.736;2023-09-08T09:46:03;6.60;;;6.10;;
44985;SDS011;30721;49.380;7.736;2023-09-08T09:48:33;6.43;;;5.88;;
44985;SDS011;30721;49.380;7.736;2023-09-08T09:51:00;6.55;;;6.05;;
44985;SDS011;30721;49.380;7.736;2023-09-08T09:53:40;6.38;;;5.88;;
44985;SDS011;30721;49.380;7.736;2023-09-08T09:56:07;5.90;;;5.40;;
44985;SDS011;30721;49.380;7.736;2023-09-08T09:58:33;8.45;;;5.60;;
44985;SDS011;30721;49.380;7.736;2023-09-08T10:00:59;6.50;;;5.90;;
44985;SDS011;30721;49.380;7.736;2023-09-08T10:03:25;6.43;;;5.90;;
44985;SDS011;30721;49.380;7.736;2023-09-08T10:05:51;5.50;;;5.10;;
44985;SDS011;30721;49.380;7.736;2023-09-08T10:08:17;6.00;;;5.50;;
44985;SDS011;30721;49.380;7.736;2023-09-08T10:10:43;6.65;;;6.00;;
44985;SDS011;30721;49.380;7.736;2023-09-08T10:13:11;6.03;;;5.53;;
44985;SDS011;30721;49.380;7.736;2023-09-08T10:15:37;5.85;;;5.35;;
44985;SDS011;30721;49.380;7.736;2023-09-08T10:18:06;6.43;;;5.93;;
44985;SDS011;30721;49.380;7.736;2023-09-08T10:20:32;6.93;;;6.32;;
44985;SDS011;30721;49.380;7.736;2023-09-08T10:23:12;6.05;;;5.45;;
44985;SDS011;30721;49.380;7.736;2023-09-08T10:25:42;6.82;;;5.43;;
44985;SDS011;30721;49.380;7.736;2023-09-08T10:28:10;6.07;;;5.57;;
44985;SDS011;30721;49.380;7.736;2023-09-08T10:30:37;6.32;;;5.82;;
44985;SDS011;30721;49.380;7.736;2023-09-08T10:33:03;5.82;;;5.43;;
44985;SDS011;30721;49.380;7.736;2023-09-08T10:35:29;6.25;;;5.70;;
44985;SDS011;30721;49.380;7.736;2023-09-08T10:43:57;6.60;;;6.07;;
44985;SDS011;30721;49.380;7.736;2023-09-08T10:46:30;6.55;;;6.05;;
44985;SDS011;30721;49.380;7.736;2023-09-08T10:49:07;6.00;;;5.50;;
44985;SDS011;30721;49.380;7.736;2023-09-08T10:51:33;6.50;;;6.00;;
44985;SDS011;30721;49.380;7.736;2023-09-08T10:54:00;6.65;;;6.05;;
44985;SDS011;30721;49.380;7.736;2023-09-08T10:57:09;6.22;;;5.72;;
44985;SDS011;30721;49.380;7.736;2023-09-08T11:01:48;5.78;;;5.30;;
44985;SDS011;30721;49.380;7.736;2023-09-08T11:04:13;5.75;;;5.40;;
44985;SDS011;30721;49.380;7.736;2023-09-08T11:06:43;5.80;;;5.40;;
44985;SDS011;30721;49.380;7.736;2023-09-08T11:09:09;5.82;;;5.43;;
44985;SDS011;30721;49.380;7.736;2023-09-08T11:11:36;6.25;;;5.85;;
44985;SDS011;30721;49.380;7.736;2023-09-08T11:14:02;6.15;;;5.75;;
44985;SDS011;30721;49.380;7.736;2023-09-08T11:16:27;6.50;;;6.00;;
44985;SDS011;30721;49.380;7.736;2023-09-08T11:18:56;6.10;;;5.70;;
44985;SDS011;30721;49.380;7.736;2023-09-08T11:21:22;6.22;;;5.82;;
44985;SDS011;30721;49.380;7.736;2023-09-08T11:23:47;6.40;;;5.90;;
44985;SDS011;30721;49.380;7.736;2023-09-08T11:26:13;6.15;;;5.65;;
44985;SDS011;30721;49.380;7.736;2023-09-08T11:28:38;6.22;;;5.82;;
44985;SDS011;30721;49.380;7.736;2023-09-08T11:31:04;6.38;;;5.97;;
44985;SDS011;30721;49.380;7.736;2023-09-08T11:33:32;6.22;;;5.80;;
44985;SDS011;30721;49.380;7.736;2023-09-08T11:35:59;6.30;;;5.70;;
44985;SDS011;30721;49.380;7.736;2023-09-08T11:38:25;5.75;;;5.30;;
44985;SDS011;30721;49.380;7.736;2023-09-08T11:40:52;6.43;;;6.03;;
44985;SDS011;30721;49.380;7.736;2023-09-08T11:43:22;6.15;;;5.70;;
44985;SDS011;30721;49.380;7.736;2023-09-08T11:45:48;6.22;;;5.72;;
44985;SDS011;30721;49.380;7.736;2023-09-08T11:48:14;6.03;;;5.63;;
44985;SDS011;30721;49.380;7.736;2023-09-08T11:50:43;6.15;;;5.75;;
44985;SDS011;30721;49.380;7.736;2023-09-08T11:53:09;6.85;;;6.30;;
44985;SDS011;30721;49.380;7.736;2023-09-08T11:55:35;6.82;;;6.32;;
44985;SDS011;30721;49.380;7.736;2023-09-08T12:10:54;6.40;;;5.93;;
44985;SDS011;30721;49.380;7.736;2023-09-08T12:18:37;6.10;;;5.70;;
44985;SDS011;30721;49.380;7.736;2023-09-08T12:21:26;7.05;;;6.53;;
44985;SDS011;30721;49.380;7.736;2023-09-08T12:23:52;6.57;;;6.07;;
44985;SDS011;30721;49.380;7.736;2023-09-08T12:26:19;6.10;;;5.65;;
44985;SDS011;30721;49.380;7.736;2023-09-08T12:28:46;6.40;;;6.00;;
44985;SDS011;30721;49.380;7.736;2023-09-08T12:38:51;6.35;;;5.90;;
44985;SDS011;30721;49.380;7.736;2023-09-08T12:41:17;5.97;;;5.50;;
44985;SDS011;30721;49.380;7.736;2023-09-08T12:43:43;6.03;;;5.53;;
44985;SDS011;30721;49.380;7.736;2023-09-08T12:46:09;6.47;;;5.93;;
44985;SDS011;30721;49.380;7.736;2023-09-08T12:48:34;5.38;;;5.07;;
44985;SDS011;30721;49.380;7.736;2023-09-08T12:51:00;5.43;;;5.03;;
44985;SDS011;30721;49.380;7.736;2023-09-08T12:53:25;5.93;;;5.43;;
44985;SDS011;30721;49.380;7.736;2023-09-08T13:01:00;7.88;;;6.20;;
44985;SDS011;30721;49.380;7.736;2023-09-08T13:03:26;6.75;;;6.18;;
44985;SDS011;30721;49.380;7.736;2023-09-08T13:08:35;5.93;;;5.53;;
44985;SDS011;30721;49.380;7.736;2023-09-08T13:11:00;6.30;;;5.78;;
44985;SDS011;30721;49.380;7.736;2023-09-08T13:13:25;6.32;;;5.72;;
44985;SDS011;30721;49.380;7.736;2023-09-08T13:15:53;6.50;;;6.03;;
44985;SDS011;30721;49.380;7.736;2023-09-08T13:18:20;6.78;;;6.28;;
44985;SDS011;30721;49.380;7.736;2023-09-08T13:20:46;6.35;;;5.95;;
44985;SDS011;30721;49.380;7.736;2023-09-08T13:23:11;6.82;;;5.82;;
44985;SDS011;30721;49.380;7.736;2023-09-08T13:25:37;6.28;;;5.45;;
44985;SDS011;30721;49.380;7.736;2023-09-08T13:28:03;5.97;;;5.47;;
44985;SDS011;30721;49.380;7.736;2023-09-08T13:30:28;5.63;;;5.22;;
44985;SDS011;30721;49.380;7.736;2023-09-08T13:32:54;6.32;;;5.43;;
44985;SDS011;30721;49.380;7.736;2023-09-08T13:35:21;5.68;;;5.28;;
44985;SDS011;30721;49.380;7.736;2023-09-08T13:37:46;6.07;;;5.45;;
44985;SDS011;30721;49.380;7.736;2023-09-08T13:40:12;6.40;;;5.90;;
44985;SDS011;30721;49.380;7.736;2023-09-08T13:42:41;5.97;;;5.57;;
44985;SDS011;30721;49.380;7.736;2023-09-08T13:45:07;6.47;;;5.90;;
44985;SDS011;30721;49.380;7.736;2023-09-08T13:47:32;6.63;;;6.13;;
44985;SDS011;30721;49.380;7.736;2023-09-08T13:49:58;6.13;;;5.68;;
44985;SDS011;30721;49.380;7.736;2023-09-08T13:52:23;6.30;;;5.57;;
44985;SDS011;30721;49.380;7.736;2023-09-08T13:54:49;6.10;;;5.60;;
44985;SDS011;30721;49.380;7.736;2023-09-08T13:57:14;5.95;;;5.45;;
44985;SDS011;30721;49.380;7.736;2023-09-08T13:59:40;6.57;;;6.00;;
44985;SDS011;30721;49.380;7.736;2023-09-08T14:02:06;6.45;;;5.85;;
44985;SDS011;30721;49.380;7.736;2023-09-08T14:04:31;6.07;;;5.57;;
44985;SDS011;30721;49.380;7.736;2023-09-08T14:06:57;6.18;;;5.75;;
44985;SDS011;30721;49.380;7.736;2023-09-08T14:09:22;5.63;;;5.22;;
44985;SDS011;30721;49.380;7.736;2023-09-08T14:11:48;5.75;;;5.25;;
44985;SDS011;30721;49.380;7.736;2023-09-08T14:14:13;5.90;;;5.25;;
44985;SDS011;30721;49.380;7.736;2023-09-08T14:16:39;5.93;;;5.43;;
44985;SDS011;30721;49.380;7.736;2023-09-08T14:19:04;5.88;;;5.38;;
44985;SDS011;30721;49.380;7.736;2023-09-08T14:21:30;6.18;;;5.63;;
44985;SDS011;30721;49.380;7.736;2023-09-08T14:23:57;6.05;;;5.45;;
44985;SDS011;30721;49.380;7.736;2023-09-08T14:26:22;5.65;;;5.25;;
44985;SDS011;30721;49.380;7.736;2023-09-08T14:57:07;6.63;;;6.07;;
44985;SDS011;30721;49.380;7.736;2023-09-08T15:10:05;6.75;;;6.22;;
44985;SDS011;30721;49.380;7.736;2023-09-08T15:15:08;6.43;;;5.78;;
44985;SDS011;30721;49.380;7.736;2023-09-08T15:17:35;6.70;;;6.13;;
44985;SDS011;30721;49.380;7.736;2023-09-08T15:20:01;6.68;;;6.07;;
44985;SDS011;30721;49.380;7.736;2023-09-08T15:22:27;7.25;;;6.65;;
44985;SDS011;30721;49.380;7.736;2023-09-08T15:37:47;7.55;;;6.22;;
44985;SDS011;30721;49.380;7.736;2023-09-08T15:47:55;6.63;;;6.13;;
44985;SDS011;30721;49.380;7.736;2023-09-08T15:50:20;6.20;;;5.60;;
44985;SDS011;30721;49.380;7.736;2023-09-08T15:52:46;6.57;;;6.03;;
44985;SDS011;30721;49.380;7.736;2023-09-08T15:55:11;6.70;;;6.00;;
44985;SDS011;30721;49.380;7.736;2023-09-08T15:57:37;6.25;;;5.65;;
44985;SDS011;30721;49.380;7.736;2023-09-08T16:00:02;6.30;;;5.78;;
44985;SDS011;30721;49.380;7.736;2023-09-08T16:02:28;5.97;;;5.28;;
44985;SDS011;30721;49.380;7.736;2023-09-08T16:07:29;6.63;;;6.13;;
44985;SDS011;30721;49.380;7.736;2023-09-08T16:12:31;6.35;;;5.85;;
44985;SDS011;30721;49.380;7.736;2023-09-08T16:14:56;5.40;;;4.90;;
44985;SDS011;30721;49.380;7.736;2023-09-08T16:17:22;5.57;;;5.07;;
44985;SDS011;30721;49.380;7.736;2023-09-08T16:19:47;6.00;;;5.60;;
44985;SDS011;30721;49.380;7.736;2023-09-08T16:24:48;5.82;;;5.10;;
44985;SDS011;30721;49.380;7.736;2023-09-08T16:27:14;5.75;;;5.30;;
44985;SDS011;30721;49.380;7.736;2023-09-08T16:29:40;6.15;;;5.60;;
44985;SDS011;30721;49.380;7.736;2023-09-08T16:32:10;7.22;;;5.38;;
44985;SDS011;30721;49.380;7.736;2023-09-08T16:37:11;6.68;;;6.03;;
44985;SDS011;30721;49.380;7.736;2023-09-08T16:39:37;5.85;;;5.35;;
44985;SDS011;30721;49.380;7.736;2023-09-08T16:42:02;6.40;;;5.82;;
44985;SDS011;30721;49.380;7.736;2023-09-08T16:44:28;5.40;;;4.90;;
44985;SDS011;30721;49.380;7.736;2023-09-08T16:46:53;5.57;;;5.18;;
44985;SDS011;30721;49.380;7.736;2023-09-08T16:49:19;6.07;;;4.93;;
44985;SDS011;30721;49.380;7.736;2023-09-08T16:51:46;5.97;;;5.35;;
44985;SDS011;30721;49.380;7.736;2023-09-08T16:54:11;6.43;;;5.90;;
44985;SDS011;30721;49.380;7.736;2023-09-08T17:01:48;6.57;;;5.85;;
44985;SDS011;30721;49.380;7.736;2023-09-08T17:04:14;7.07;;;6.47;;
44985;SDS011;30721;49.380;7.736;2023-09-08T17:06:39;6.85;;;6.05;;
44985;SDS011;30721;49.380;7.736;2023-09-08T17:09:09;6.45;;;5.85;;
44985;SDS011;30721;49.380;7.736;2023-09-08T17:14:06;6.13;;;5.60;;
44985;SDS011;30721;49.380;7.736;2023-09-08T17:16:31;6.25;;;5.72;;
44985;SDS011;30721;49.380;7.736;2023-09-08T17:18:57;6.40;;;5.90;;
44985;SDS011;30721;49.380;7.736;2023-09-08T17:31:39;6.88;;;6.35;;
44985;SDS011;30721;49.380;7.736;2023-09-08T17:34:13;6.80;;;6.20;;
44985;SDS011;30721;49.380;7.736;2023-09-08T17:36:42;6.97;;;6.45;;
44985;SDS011;30721;49.380;7.736;2023-09-08T17:39:08;6.72;;;6.22;;
44985;SDS011;30721;49.380;7.736;2023-09-08T17:44:04;6.65;;;6.13;;
44985;SDS011;30721;49.380;7.736;2023-09-08T17:46:30;6.80;;;6.35;;
44985;SDS011;30721;49.380;7.736;2023-09-08T17:51:31;6.85;;;6.35;;
44985;SDS011;30721;49.380;7.736;2023-09-08T17:53:56;7.68;;;6.93;;
44985;SDS011;30721;49.380;7.736;2023-09-08T17:56:22;6.97;;;6.38;;
44985;SDS011;30721;49.380;7.736;2023-09-08T17:58:47;7.43;;;6.82;;
44985;SDS011;30721;49.380;7.736;2023-09-08T18:01:13;7.47;;;6.88;;
44985;SDS011;30721;49.380;7.736;2023-09-08T18:03:38;7.90;;;7.10;;
44985;SDS011;30721;49.380;7.736;2023-09-08T18:06:04;7.68;;;6.97;;
44985;SDS011;30721;49.380;7.736;2023-09-08T18:08:32;7.90;;;7.10;;
44985;SDS011;30721;49.380;7.736;2023-09-08T18:11:05;6.88;;;6.38;;
44985;SDS011;30721;49.380;7.736;2023-09-08T18:13:32;7.90;;;7.20;;
44985;SDS011;30721;49.380;7.736;2023-09-08T18:16:01;7.38;;;6.85;;
44985;SDS011;30721;49.380;7.736;2023-09-08T18:18:28;6.72;;;6.22;;
44985;SDS011;30721;49.380;7.736;2023-09-08T18:20:54;8.30;;;6.78;;
44985;SDS011;30721;49.380;7.736;2023-09-08T18:23:19;7.38;;;6.75;;
44985;SDS011;30721;49.380;7.736;2023-09-08T18:25:45;7.63;;;6.82;;
44985;SDS011;30721;49.380;7.736;2023-09-08T18:28:10;8.13;;;7.32;;
44985;SDS011;30721;49.380;7.736;2023-09-08T18:30:40;7.65;;;6.72;;
44985;SDS011;30721;49.380;7.736;2023-09-08T18:33:06;7.40;;;6.70;;
44985;SDS011;30721;49.380;7.736;2023-09-08T18:35:32;7.22;;;6.65;;
44985;SDS011;30721;49.380;7.736;2023-09-08T18:37:58;7.38;;;6.78;;
44985;SDS011;30721;49.380;7.736;2023-09-08T18:40:23;7.55;;;6.95;;
44985;SDS011;30721;49.380;7.736;2023-09-08T18:42:49;7.22;;;6.60;;
44985;SDS011;30721;49.380;7.736;2023-09-08T18:45:14;6.55;;;6.03;;
44985;SDS011;30721;49.380;7.736;2023-09-08T18:47:42;7.55;;;6.90;;
44985;SDS011;30721;49.380;7.736;2023-09-08T18:50:07;7.05;;;6.45;;
44985;SDS011;30721;49.380;7.736;2023-09-08T18:52:33;7.07;;;6.47;;
44985;SDS011;30721;49.380;7.736;2023-09-08T18:54:59;7.43;;;6.60;;
44985;SDS011;30721;49.380;7.736;2023-09-08T18:57:25;6.80;;;6.20;;
44985;SDS011;30721;49.380;7.736;2023-09-08T18:59:54;7.40;;;6.43;;
44985;SDS011;30721;49.380;7.736;2023-09-08T19:02:20;7.05;;;6.47;;
44985;SDS011;30721;49.380;7.736;2023-09-08T19:04:45;6.88;;;6.38;;
44985;SDS011;30721;49.380;7.736;2023-09-08T19:07:11;7.20;;;6.60;;
44985;SDS011;30721;49.380;7.736;2023-09-08T19:09:36;6.68;;;6.18;;
44985;SDS011;30721;49.380;7.736;2023-09-08T19:12:01;7.18;;;6.43;;
44985;SDS011;30721;49.380;7.736;2023-09-08T19:14:28;6.88;;;6.28;;
44985;SDS011;30721;49.380;7.736;2023-09-08T19:16:54;7.40;;;6.78;;
44985;SDS011;30721;49.380;7.736;2023-09-08T19:19:22;6.95;;;6.45;;
44985;SDS011;30721;49.380;7.736;2023-09-08T19:21:48;7.38;;;6.80;;
44985;SDS011;30721;49.380;7.736;2023-09-08T19:24:13;7.43;;;6.82;;
44985;SDS011;30721;49.380;7.736;2023-09-08T19:26:42;7.68;;;6.95;;
44985;SDS011;30721;49.380;7.736;2023-09-08T19:29:08;7.68;;;6.97;;
44985;SDS011;30721;49.380;7.736;2023-09-08T19:31:33;7.93;;;6.53;;
44985;SDS011;30721;49.380;7.736;2023-09-08T19:33:59;7.55;;;6.90;;
44985;SDS011;30721;49.380;7.736;2023-09-08T19:36:26;7.20;;;6.60;;
44985;SDS011;30721;49.380;7.736;2023-09-08T19:38:51;7.93;;;7.22;;
44985;SDS011;30721;49.380;7.736;2023-09-08T19:41:17;7.93;;;7.28;;
44985;SDS011;30721;49.380;7.736;2023-09-08T19:43:45;8.10;;;7.40;;
44985;SDS011;30721;49.380;7.736;2023-09-08T19:46:10;8.02;;;7.32;;
44985;SDS011;30721;49.380;7.736;2023-09-08T19:48:36;7.70;;;7.00;;
44985;SDS011;30721;49.380;7.736;2023-09-08T19:51:02;7.72;;;7.13;;
44985;SDS011;30721;49.380;7.736;2023-09-08T19:53:30;7.80;;;7.20;;
44985;SDS011;30721;49.380;7.736;2023-09-08T19:55:56;7.80;;;6.75;;
44985;SDS011;30721;49.380;7.736;2023-09-08T19:58:24;7.85;;;7.15;;
44985;SDS011;30721;49.380;7.736;2023-09-08T20:00:50;7.97;;;7.22;;
44985;SDS011;30721;49.380;7.736;2023-09-08T20:03:15;8.23;;;7.50;;
44985;SDS011;30721;49.380;7.736;2023-09-08T20:05:44;7.85;;;7.15;;
44985;SDS011;30721;49.380;7.736;2023-09-08T20:08:11;7.78;;;7.18;;
44985;SDS011;30721;49.380;7.736;2023-09-08T20:10:37;7.78;;;7.13;;
44985;SDS011;30721;49.380;7.736;2023-09-08T20:13:05;7.70;;;7.10;;
44985;SDS011;30721;49.380;7.736;2023-09-08T20:15:31;7.43;;;6.72;;
44985;SDS011;30721;49.380;7.736;2023-09-08T20:17:58;8.05;;;7.25;;
44985;SDS011;30721;49.380;7.736;2023-09-08T20:20:24;7.90;;;7.10;;
44985;SDS011;30721;49.380;7.736;2023-09-08T20:22:50;7.95;;;7.13;;
44985;SDS011;30721;49.380;7.736;2023-09-08T20:25:15;7.05;;;6.45;;
44985;SDS011;30721;49.380;7.736;2023-09-08T20:27:41;7.57;;;6.97;;
44985;SDS011;30721;49.380;7.736;2023-09-08T20:30:06;7.28;;;6.57;;
44985;SDS011;30721;49.380;7.736;2023-09-08T20:32:32;7.75;;;7.10;;
44985;SDS011;30721;49.380;7.736;2023-09-08T20:34:57;7.45;;;6.85;;
44985;SDS011;30721;49.380;7.736;2023-09-08T20:37:23;7.57;;;6.88;;
44985;SDS011;30721;49.380;7.736;2023-09-08T20:39:48;7.97;;;7.35;;
44985;SDS011;30721;49.380;7.736;2023-09-08T20:42:14;7.30;;;6.70;;
44985;SDS011;30721;49.380;7.736;2023-09-08T20:44:39;8.15;;;7.45;;
44985;SDS011;30721;49.380;7.736;2023-09-08T20:47:05;8.48;;;7.68;;
44985;SDS011;30721;49.380;7.736;2023-09-08T20:49:30;7.75;;;7.07;;
44985;SDS011;30721;49.380;7.736;2023-09-08T20:51:56;7.75;;;6.95;;